Time;durP1;ratioP1;P1;durP2;ratioP2;P2;SDS_P1;SDS_P2;PMS_P1;PMS_P2;Temp;Humidity;BMP_temperature;BMP_pressure;BME280_temperature;BME280_humidity;BME280_pressure;Samples;Min_cycle;Max_cycle;Signal;HPM_P1;HPM_P2
2022/04/18 00:02:17;;;;;;;8.20;2.28;;;;;;;9.74;43.41;100371.28;5017517;28;20199;-56
2022/04/18 00:04:48;;;;;;;4.20;1.80;;;;;;;9.68;43.44;100377.44;5016189;28;20057;-56
2022/04/18 00:07:19;;;;;;;3.85;1.90;;;;;;;9.75;42.90;100366.91;5017632;28;20062;-56
2022/04/18 00:09:49;;;;;;;3.03;1.15;;;;;;;9.56;44.38;100376.66;5016582;28;20046;-56
2022/04/18 00:12:20;;;;;;;9.38;2.22;;;;;;;9.83;42.47;100381.59;5018323;28;20080;-56
2022/04/18 00:14:51;;;;;;;5.05;2.00;;;;;;;9.67;42.76;100374.81;5022858;28;20061;-55
2022/04/18 00:17:23;;;;;;;5.97;2.15;;;;;;;9.40;43.21;100371.63;5024274;28;20053;-56
2022/04/18 00:19:55;;;;;;;3.88;1.73;;;;;;;9.00;43.03;100379.78;5024558;28;20054;-57
2022/04/18 00:22:25;;;;;;;4.75;1.98;;;;;;;8.75;43.69;100373.03;5024885;28;20053;-55
2022/04/18 00:24:56;;;;;;;9.95;2.70;;;;;;;9.12;44.51;100372.75;5022729;28;20459;-57
2022/04/18 00:27:26;;;;;;;7.63;2.35;;;;;;;8.93;44.27;100378.09;5024514;28;20055;-55
2022/04/18 00:29:57;;;;;;;9.52;1.90;;;;;;;8.05;44.09;100304.88;5024705;28;20059;-56
2022/04/18 00:32:29;;;;;;;6.30;1.60;;;;;;;8.46;44.10;100374.09;5024093;28;20081;-56
2022/04/18 00:35:02;;;;;;;3.55;1.90;;;;;;;8.50;44.36;100369.75;5023957;28;20052;-56
2022/04/18 00:37:33;;;;;;;3.13;1.77;;;;;;;8.79;44.04;100374.75;5024248;28;20066;-56
2022/04/18 00:40:06;;;;;;;7.00;2.58;;;;;;;9.02;44.57;100365.00;5024616;28;20141;-56
2022/04/18 00:42:36;;;;;;;4.47;2.00;;;;;;;9.04;44.02;100358.06;5024469;28;20049;-56
2022/04/18 00:45:08;;;;;;;7.90;2.33;;;;;;;9.07;44.07;100363.22;5024351;28;20125;-56
2022/04/18 00:47:41;;;;;;;3.20;1.80;;;;;;;9.28;42.68;100361.28;5024280;28;20065;-56
2022/04/18 00:50:12;;;;;;;3.88;1.90;;;;;;;9.42;42.57;100359.44;5024246;28;20112;-55
2022/04/18 00:52:42;;;;;;;2.92;1.42;;;;;;;9.54;42.12;100357.59;5024201;28;20077;-55
2022/04/18 00:55:13;;;;;;;3.25;1.50;;;;;;;9.41;41.25;100360.31;5023919;28;20073;-56
2022/04/18 00:57:45;;;;;;;3.63;1.40;;;;;;;9.32;40.94;100357.78;5022956;28;20073;-55
2022/04/18 01:00:16;;;;;;;3.88;1.55;;;;;;;9.09;41.10;100357.16;5023581;28;20041;-56
2022/04/18 01:02:48;;;;;;;3.83;1.70;;;;;;;8.86;41.61;100363.38;5022531;28;20394;-56
2022/04/18 01:05:19;;;;;;;3.38;1.55;;;;;;;8.80;42.08;100363.44;5023991;28;20056;-56
2022/04/18 01:07:50;;;;;;;2.45;1.33;;;;;;;9.25;42.84;100353.50;5023848;28;20054;-56
2022/04/18 01:10:21;;;;;;;9.85;1.50;;;;;;;9.67;42.45;100359.19;5024083;28;20348;-56
2022/04/18 01:12:51;;;;;;;12.30;1.73;;;;;;;9.94;41.52;100340.56;5023591;28;20049;-55
2022/04/18 01:15:22;;;;;;;13.98;2.20;;;;;;;9.78;41.67;100349.47;5024038;28;20537;-55
2022/04/18 01:17:54;;;;;;;2.75;1.40;;;;;;;9.69;40.70;100336.53;5023734;28;20058;-55
2022/04/18 01:20:26;;;;;;;7.55;1.60;;;;;;;9.59;40.45;100346.22;5023871;28;20103;-56
2022/04/18 01:22:59;;;;;;;8.93;2.20;;;;;;;9.61;40.29;100348.78;5022986;28;20124;-56
2022/04/18 01:31:05;;;;;;;2.60;1.00;;;;;;;10.57;40.14;100333.66;5023459;28;20065;-55
2022/04/18 01:33:36;;;;;;;2.65;1.50;;;;;;;10.49;39.25;100340.75;5024025;28;20045;-56
2022/04/18 01:36:07;;;;;;;2.92;1.70;;;;;;;10.22;39.11;100332.38;5023638;28;20065;-55
2022/04/18 01:38:39;;;;;;;2.65;1.38;;;;;;;10.10;38.53;100332.53;5023624;28;20524;-56
2022/04/18 01:41:10;;;;;;;3.58;1.38;;;;;;;9.82;38.36;100322.47;5022728;28;20115;-56
2022/04/18 01:43:41;;;;;;;32.65;2.15;;;;;;;9.85;39.54;100327.63;5022426;28;20248;-55
2022/04/18 01:46:11;;;;;;;12.65;2.00;;;;;;;10.26;40.02;100327.97;5023338;28;20108;-54
2022/04/18 01:48:42;;;;;;;5.93;1.23;;;;;;;10.63;39.16;100330.94;5023858;28;20281;-55
2022/04/18 01:51:13;;;;;;;10.80;1.50;;;;;;;10.73;38.39;100324.69;5023400;28;20120;-56
2022/04/18 01:53:45;;;;;;;4.90;1.20;;;;;;;10.78;37.56;100328.09;5023071;28;20075;-54
2022/04/18 01:56:16;;;;;;;1.73;1.10;;;;;;;10.77;37.18;100321.13;5022976;28;20054;-57
2022/04/18 01:58:48;;;;;;;3.88;1.55;;;;;;;11.14;37.60;100330.97;5023291;28;20053;-55
2022/04/18 02:01:18;;;;;;;20.02;2.95;;;;;;;11.37;36.91;100321.84;5023296;28;20056;-56
2022/04/18 02:03:49;;;;;;;2.17;0.95;;;;;;;11.58;36.78;100316.22;5023294;28;20054;-56
2022/04/18 02:06:20;;;;;;;8.98;2.00;;;;;;;11.16;37.21;100323.97;5023021;28;20062;-56
2022/04/18 02:08:52;;;;;;;7.60;1.30;;;;;;;10.44;38.36;100326.91;5023475;28;20053;-56
2022/04/18 02:11:22;;;;;;;2.85;1.17;;;;;;;10.29;39.07;100318.38;5027429;28;20062;-55
2022/04/18 02:13:53;;;;;;;1.52;1.20;;;;;;;10.24;37.01;100301.88;5027296;28;20511;-56
2022/04/18 02:16:24;;;;;;;3.67;1.20;;;;;;;10.39;37.55;100313.03;5027578;28;20049;-55
2022/04/18 02:18:54;;;;;;;4.28;1.30;;;;;;;10.25;38.17;100306.22;5027116;28;20057;-56
2022/04/18 02:21:25;;;;;;;3.05;1.40;;;;;;;10.10;37.36;100311.66;5026982;28;20053;-56
2022/04/18 02:23:58;;;;;;;5.13;1.23;;;;;;;10.19;37.21;100306.31;5026900;28;20046;-56
2022/04/18 02:26:28;;;;;;;3.95;1.50;;;;;;;10.27;37.33;100307.06;5026906;28;20069;-57
2022/04/18 02:28:59;;;;;;;3.60;1.33;;;;;;;10.45;37.45;100303.34;5026827;28;20050;-56
2022/04/18 02:31:30;;;;;;;3.03;1.20;;;;;;;10.85;37.52;100296.63;5026808;28;20052;-54
2022/04/18 02:34:00;;;;;;;12.07;1.70;;;;;;;10.93;34.05;100294.72;5026473;28;20054;-55
2022/04/18 02:36:31;;;;;;;21.92;2.22;;;;;;;10.99;36.02;100299.88;5025993;28;20066;-56
2022/04/18 02:39:03;;;;;;;2.33;1.13;;;;;;;11.11;35.76;100296.19;5026768;28;20061;-56
2022/04/18 02:41:34;;;;;;;2.88;1.15;;;;;;;11.21;36.17;100295.13;5026702;28;20049;-56
2022/04/18 02:44:05;;;;;;;3.80;1.50;;;;;;;11.16;35.69;100297.81;5026433;28;20467;-55
2022/04/18 02:46:36;;;;;;;64.53;4.28;;;;;;;10.96;35.98;100294.69;5026153;28;20371;-55
2022/04/18 02:49:06;;;;;;;2.13;1.17;;;;;;;11.02;35.89;100299.81;5026301;28;20331;-56
2022/04/18 02:51:37;;;;;;;4.00;1.75;;;;;;;11.12;35.63;100290.91;5026406;28;20372;-56
2022/04/18 02:54:09;;;;;;;2.35;1.58;;;;;;;10.99;34.64;100278.94;5026358;28;20068;-56
2022/04/18 02:56:40;;;;;;;3.55;1.60;;;;;;;10.88;34.30;100286.09;5026790;28;20552;-55
2022/04/18 02:59:11;;;;;;;12.55;2.63;;;;;;;10.50;35.06;100296.28;5026321;28;20057;-54
2022/04/18 03:01:41;;;;;;;2.95;1.23;;;;;;;10.40;36.10;100293.84;5026098;28;20046;-55
2022/04/18 03:04:12;;;;;;;2.13;1.20;;;;;;;10.29;36.07;100292.28;5026128;28;20365;-53
2022/04/18 03:06:43;;;;;;;7.70;1.40;;;;;;;9.94;36.41;100251.84;5024770;28;20081;-55
2022/04/18 03:09:15;;;;;;;16.25;2.13;;;;;;;10.22;36.14;100274.94;5025276;28;20133;-55
2022/04/18 03:11:46;;;;;;;4.13;1.30;;;;;;;10.29;36.69;100284.44;5026050;28;20046;-55
2022/04/18 03:14:17;;;;;;;1.40;1.15;;;;;;;10.39;36.71;100281.69;5025773;28;20552;-53
2022/04/18 03:16:47;;;;;;;18.60;2.17;;;;;;;10.53;36.67;100270.16;5025707;28;20053;-54
2022/04/18 03:19:18;;;;;;;3.63;1.27;;;;;;;10.63;36.75;100270.81;5025713;28;20058;-55
2022/04/18 03:21:49;;;;;;;3.53;1.30;;;;;;;10.39;36.67;100245.13;5024771;28;20053;-54
2022/04/18 03:24:21;;;;;;;4.07;1.17;;;;;;;10.02;36.87;100279.56;5025002;28;20052;-52
2022/04/18 03:26:52;;;;;;;1.42;1.15;;;;;;;9.55;37.39;100249.75;5025798;28;20058;-54
2022/04/18 03:29:22;;;;;;;4.68;1.20;;;;;;;9.46;38.83;100276.78;5025753;28;20484;-52
2022/04/18 03:31:53;;;;;;;10.52;1.65;;;;;;;9.53;40.02;100278.44;5025839;28;20054;-56
2022/04/18 03:34:25;;;;;;;5.93;1.30;;;;;;;9.41;37.45;100263.81;5025778;28;20065;-54
2022/04/18 03:39:54;;;;;;;4.93;1.40;;;;;;;9.91;36.91;100269.28;5025021;28;20244;-54
2022/04/18 03:42:32;;;;;;;23.30;1.85;;;;;;;10.07;36.81;100276.00;5025685;28;20474;-55
2022/04/18 03:45:03;;;;;;;2.47;1.40;;;;;;;10.32;36.59;100273.94;5025149;28;20111;-55
2022/04/18 03:47:35;;;;;;;12.23;1.50;;;;;;;10.47;35.24;100266.75;5025073;28;20066;-54
2022/04/18 03:50:07;;;;;;;3.60;1.20;;;;;;;10.67;34.99;100262.06;5025292;28;20068;-54
2022/04/18 03:52:37;;;;;;;2.75;1.23;;;;;;;10.80;34.34;100262.72;5025348;28;20116;-53
2022/04/18 03:55:11;;;;;;;3.95;1.35;;;;;;;10.83;34.59;100267.03;5024395;28;20050;-54
2022/04/18 03:57:41;;;;;;;2.13;1.17;;;;;;;11.04;34.68;100261.41;5024647;28;20057;-55
2022/04/18 04:00:13;;;;;;;3.95;1.25;;;;;;;11.26;35.46;100261.00;5024418;28;20080;-54
2022/04/18 04:02:44;;;;;;;1.92;0.80;;;;;;;11.35;34.04;100260.84;5024794;28;20081;-54
2022/04/18 04:05:15;;;;;;;2.17;1.30;;;;;;;11.26;34.47;100255.78;5024995;28;20141;-55
2022/04/18 04:07:45;;;;;;;1.63;1.10;;;;;;;11.20;34.17;100257.63;5024959;28;20154;-54
2022/04/18 04:10:18;;;;;;;1.55;1.10;;;;;;;11.06;34.35;100253.53;5024776;28;20061;-55
2022/04/18 04:12:48;;;;;;;4.68;1.13;;;;;;;10.94;34.12;100255.50;5025009;28;20694;-53
2022/04/18 04:15:19;;;;;;;11.38;1.92;;;;;;;10.76;34.13;100255.84;5024818;28;20075;-54
2022/04/18 04:17:49;;;;;;;5.80;1.40;;;;;;;10.42;34.37;100251.16;5024763;28;20061;-53
2022/04/18 04:20:22;;;;;;;18.48;1.73;;;;;;;10.36;34.11;100249.50;5024179;28;20186;-55
2022/04/18 04:22:53;;;;;;;2.40;2.15;;;;;;;10.32;33.34;100250.44;5024524;28;20091;-56
2022/04/18 04:25:25;;;;;;;3.95;1.25;;;;;;;10.34;35.55;100238.22;5024692;28;20068;-53
2022/04/18 04:27:56;;;;;;;3.00;1.55;;;;;;;10.37;34.92;100247.75;5024661;28;20072;-51
2022/04/18 04:30:26;;;;;;;11.75;3.88;;;;;;;10.57;34.89;100244.81;5024477;28;20054;-54
2022/04/18 04:32:57;;;;;;;4.30;1.30;;;;;;;10.60;35.16;100239.53;5024160;28;20054;-54
2022/04/18 04:35:28;;;;;;;34.15;3.28;;;;;;;10.71;35.00;100248.06;5024211;28;20340;-51
2022/04/18 04:37:58;;;;;;;18.15;2.20;;;;;;;10.60;34.78;100242.13;5024457;28;20083;-55
2022/04/18 04:40:31;;;;;;;4.03;1.27;;;;;;;10.27;34.08;100252.22;5024041;28;20523;-54
2022/04/18 04:43:02;;;;;;;7.15;1.98;;;;;;;10.03;34.65;100242.13;5024240;28;20490;-53
2022/04/18 04:45:32;;;;;;;2.50;1.40;;;;;;;10.09;34.84;100239.44;5024136;28;20307;-53
2022/04/18 04:48:03;;;;;;;11.60;1.42;;;;;;;10.47;34.86;100240.63;5024057;28;20069;-54
2022/04/18 04:50:34;;;;;;;3.70;1.48;;;;;;;10.53;31.78;100232.69;5024111;28;20049;-52
2022/04/18 04:53:06;;;;;;;2.50;1.40;;;;;;;10.51;32.81;100239.72;5024011;28;20042;-54
2022/04/18 04:55:38;;;;;;;3.95;1.17;;;;;;;10.63;33.89;100238.63;5024063;28;20060;-53
2022/04/18 04:58:09;;;;;;;17.38;2.03;;;;;;;10.48;33.97;100203.16;5023869;28;20221;-55
2022/04/18 05:00:42;;;;;;;3.03;1.20;;;;;;;10.60;36.58;100213.41;5023732;28;20050;-54
2022/04/18 05:03:13;;;;;;;1.70;1.20;;;;;;;10.26;36.09;100229.63;5023918;28;20244;-53
2022/04/18 05:05:43;;;;;;;3.83;1.10;;;;;;;9.97;37.72;100229.19;5023798;28;20100;-52
2022/04/18 05:08:14;;;;;;;10.73;1.48;;;;;;;9.91;37.53;100233.59;5023759;28;20104;-55
2022/04/18 05:10:46;;;;;;;12.13;2.08;;;;;;;10.06;38.30;100227.31;5023549;28;20351;-51
2022/04/18 05:13:16;;;;;;;4.53;1.23;;;;;;;10.08;38.10;100219.44;5023006;28;20061;-53
2022/04/18 05:15:47;;;;;;;2.95;1.25;;;;;;;10.02;36.64;100224.75;5023726;28;20128;-54
2022/04/18 05:18:18;;;;;;;1.45;1.20;;;;;;;9.84;35.52;100216.31;5023845;28;20054;-51
2022/04/18 05:20:48;;;;;;;1.63;0.93;;;;;;;9.71;36.70;100214.75;5023789;28;20085;-53
2022/04/18 05:23:20;;;;;;;6.57;1.08;;;;;;;9.73;37.32;100210.34;5022965;28;20099;-52
2022/04/18 05:25:52;;;;;;;1.98;1.30;;;;;;;9.75;38.22;100216.44;5023127;28;20057;-50
2022/04/18 05:28:23;;;;;;;2.78;1.20;;;;;;;9.81;36.23;100211.13;5023147;28;20065;-54
2022/04/18 05:30:54;;;;;;;2.38;0.98;;;;;;;9.62;37.57;100209.66;5023619;28;20057;-52
2022/04/18 05:33:25;;;;;;;5.68;1.23;;;;;;;9.31;37.16;100163.13;5023675;28;20340;-53
2022/04/18 05:35:55;;;;;;;1.92;1.08;;;;;;;9.41;37.68;100201.22;5023605;28;20264;-51
2022/04/18 05:38:26;;;;;;;7.07;1.55;;;;;;;9.38;39.23;100206.47;5023309;28;20316;-54
2022/04/18 05:40:58;;;;;;;13.52;1.65;;;;;;;9.23;38.73;100211.88;5023424;28;20052;-51
2022/04/18 05:43:29;;;;;;;3.45;1.17;;;;;;;8.98;38.41;100206.94;5023395;28;20062;-53
2022/04/18 05:46:04;;;;;;;2.33;1.48;;;;;;;8.95;38.52;100196.53;5023571;28;20054;-51
2022/04/18 05:48:35;;;;;;;4.68;1.15;;;;;;;9.25;38.94;100202.28;5023184;28;20115;-51
2022/04/18 05:51:06;;;;;;;2.83;1.13;;;;;;;9.27;39.55;100208.34;5023366;28;20054;-49
2022/04/18 05:53:37;;;;;;;19.10;1.83;;;;;;;8.66;41.84;100123.03;5023041;28;20061;-53
2022/04/18 05:56:09;;;;;;;6.05;1.40;;;;;;;8.68;43.09;100162.97;5023288;28;20209;-52
2022/04/18 05:58:42;;;;;;;4.63;1.40;;;;;;;8.44;45.52;100217.03;5023039;28;20117;-50
2022/04/18 06:01:12;;;;;;;2.60;1.00;;;;;;;8.04;45.85;100214.69;5023162;28;20060;-53
2022/04/18 06:03:43;;;;;;;2.55;0.95;;;;;;;7.86;46.46;100212.19;5023132;28;20308;-53
2022/04/18 06:06:14;;;;;;;17.58;1.58;;;;;;;7.64;46.58;100214.94;5023088;28;20058;-51
2022/04/18 06:08:45;;;;;;;2.40;1.30;;;;;;;7.41;47.94;100221.94;5023245;28;20049;-51
2022/04/18 06:11:17;;;;;;;9.02;1.73;;;;;;;7.19;49.70;100222.06;5023180;28;20057;-51
2022/04/18 06:13:47;;;;;;;8.32;1.70;;;;;;;7.01;49.22;100227.28;5023085;28;20366;-53
2022/04/18 06:16:18;;;;;;;8.98;1.45;;;;;;;6.90;50.42;100230.75;5022971;28;20081;-52
2022/04/18 06:18:49;;;;;;;11.38;2.40;;;;;;;6.81;50.81;100230.78;5022787;28;20119;-51
2022/04/18 06:21:19;;;;;;;6.75;1.40;;;;;;;6.64;50.80;100222.13;5023178;28;20076;-53
2022/04/18 06:23:50;;;;;;;8.27;1.50;;;;;;;6.35;51.25;100225.63;5022974;28;20116;-51
2022/04/18 06:26:22;;;;;;;16.40;1.63;;;;;;;6.10;53.11;100229.06;5022888;28;20109;-50
2022/04/18 06:28:54;;;;;;;3.70;1.25;;;;;;;6.11;53.81;100225.59;5023226;28;20117;-52
2022/04/18 06:31:24;;;;;;;4.22;1.25;;;;;;;6.10;53.66;100234.25;5023028;28;20360;-55
2022/04/18 06:33:55;;;;;;;3.67;1.38;;;;;;;6.17;53.44;100230.81;5023027;28;20137;-51
2022/04/18 06:36:26;;;;;;;5.55;1.60;;;;;;;6.33;54.04;100237.72;5022833;28;20623;-49
2022/04/18 06:38:56;;;;;;;4.60;1.25;;;;;;;6.44;53.05;100238.63;5022853;28;20054;-51
2022/04/18 06:41:29;;;;;;;6.97;1.85;;;;;;;6.07;53.64;100234.25;5022690;28;20061;-51
2022/04/18 06:43:59;;;;;;;2.97;1.10;;;;;;;5.76;54.15;100244.50;5022443;28;20049;-50
2022/04/18 06:46:30;;;;;;;7.57;1.30;;;;;;;5.44;55.10;100253.03;5022997;28;20062;-53
2022/04/18 06:49:00;;;;;;;3.85;1.20;;;;;;;5.26;55.89;100245.19;5022503;28;20155;-54
2022/04/18 06:51:31;;;;;;;2.67;1.00;;;;;;;5.06;56.18;100251.13;5023303;28;20092;-53
2022/04/18 06:54:02;;;;;;;3.83;1.10;;;;;;;4.92;56.46;100252.78;5022914;28;20455;-53
2022/04/18 06:59:21;;;;;;;6.15;1.33;;;;;;;5.09;56.35;100261.53;5026277;28;20053;-53
2022/04/18 07:01:52;;;;;;;6.50;1.45;;;;;;;5.29;56.36;100259.03;5026174;28;20399;-50
2022/04/18 07:04:23;;;;;;;7.43;1.20;;;;;;;5.25;56.41;100256.41;5025082;28;20298;-49
2022/04/18 07:06:53;;;;;;;4.35;1.23;;;;;;;5.25;56.32;100256.41;5025280;28;20108;-52
2022/04/18 07:09:24;;;;;;;4.55;1.25;;;;;;;5.30;55.96;100259.91;5025668;28;20057;-50
2022/04/18 07:11:56;;;;;;;8.73;2.75;;;;;;;5.40;55.22;100264.25;5025699;28;20171;-55
2022/04/18 07:14:27;;;;;;;11.45;3.17;;;;;;;5.40;54.90;100264.25;5025362;28;20177;-51
2022/04/18 07:16:57;;;;;;;14.40;2.58;;;;;;;5.42;55.24;100265.13;5026069;28;20077;-53
2022/04/18 07:19:29;;;;;;;12.57;3.13;;;;;;;5.29;55.02;100273.69;5025851;28;20081;-53
2022/04/18 07:21:59;;;;;;;9.57;3.85;;;;;;;5.38;54.57;100271.16;5025880;28;20057;-50
2022/04/18 07:24:30;;;;;;;4.22;1.67;;;;;;;5.42;54.60;100270.31;5025542;28;20155;-53
2022/04/18 07:27:02;;;;;;;8.13;2.40;;;;;;;5.47;54.61;100278.13;5025766;28;20061;-52
2022/04/18 07:29:33;;;;;;;6.90;1.98;;;;;;;5.51;54.68;100275.53;5025728;28;20291;-54
2022/04/18 07:32:05;;;;;;;4.68;2.30;;;;;;;5.65;54.72;100279.94;5025746;28;20054;-52
2022/04/18 07:34:36;;;;;;;8.27;2.58;;;;;;;5.76;54.19;100284.25;5025757;28;20057;-53
2022/04/18 07:37:07;;;;;;;6.53;2.75;;;;;;;5.83;53.27;100282.56;5025282;28;20049;-52
2022/04/18 07:39:37;;;;;;;6.38;2.28;;;;;;;5.72;53.71;100289.47;5025324;28;20049;-54
2022/04/18 07:42:09;;;;;;;11.95;2.80;;;;;;;5.65;53.93;100292.88;5025315;28;20143;-54
2022/04/18 07:44:40;;;;;;;10.00;2.03;;;;;;;5.45;54.62;100290.19;5025283;28;20055;-53
2022/04/18 07:47:11;;;;;;;3.85;1.55;;;;;;;5.25;55.26;100297.88;5025436;28;20126;-53
2022/04/18 07:49:41;;;;;;;6.80;2.17;;;;;;;5.31;55.42;100292.72;5025430;28;20050;-53
2022/04/18 07:52:12;;;;;;;5.05;2.10;;;;;;;5.36;55.15;100303.97;5025268;28;20052;-52
2022/04/18 07:54:45;;;;;;;4.50;1.77;;;;;;;5.50;55.25;100310.09;5025070;28;20046;-52
2022/04/18 07:57:18;;;;;;;4.70;1.40;;;;;;;5.53;54.43;100304.91;5025146;28;20322;-53
2022/04/18 07:59:48;;;;;;;17.10;1.63;;;;;;;5.44;53.52;100299.69;5025264;28;20113;-53
2022/04/18 08:02:19;;;;;;;3.90;1.40;;;;;;;5.33;54.17;100311.72;5024477;28;20061;-53
2022/04/18 08:04:50;;;;;;;5.95;0.98;;;;;;;5.22;54.18;100318.56;5025045;28;20061;-54
2022/04/18 08:07:21;;;;;;;8.07;1.30;;;;;;;5.11;54.63;100321.94;5024541;28;20053;-52
2022/04/18 08:09:52;;;;;;;4.28;1.48;;;;;;;4.97;54.80;100318.41;5023715;28;20108;-55
2022/04/18 08:12:24;;;;;;;5.30;2.67;;;;;;;4.97;55.45;100318.41;5024393;28;20053;-53
2022/04/18 08:14:55;;;;;;;9.70;2.00;;;;;;;4.96;55.51;100322.69;5024158;28;20117;-49
2022/04/18 08:17:25;;;;;;;3.80;1.20;;;;;;;4.95;54.81;100322.72;5024242;28;20064;-55
2022/04/18 08:19:56;;;;;;;5.97;1.40;;;;;;;4.88;54.86;100333.88;5023896;28;20061;-55
2022/04/18 08:22:27;;;;;;;6.65;1.23;;;;;;;4.73;55.29;100330.28;5024357;28;20583;-52
2022/04/18 08:24:58;;;;;;;10.25;1.55;;;;;;;4.62;55.98;100329.34;5023761;28;20221;-55
2022/04/18 08:27:30;;;;;;;7.93;1.95;;;;;;;4.52;56.10;100327.53;5024109;28;20084;-55
2022/04/18 08:30:01;;;;;;;9.73;1.30;;;;;;;4.46;55.84;100335.22;5024203;28;20050;-53
2022/04/18 08:32:38;;;;;;;6.57;1.42;;;;;;;4.42;56.13;100330.84;5024598;28;20057;-54
2022/04/18 08:35:09;;;;;;;8.35;1.58;;;;;;;4.23;56.22;100306.53;5023904;28;20046;-53
2022/04/18 08:37:40;;;;;;;8.18;1.40;;;;;;;4.37;56.69;100340.28;5024151;28;20121;-56
2022/04/18 08:40:13;;;;;;;3.42;0.93;;;;;;;4.25;56.63;100335.88;5024625;28;20056;-53
2022/04/18 08:42:45;;;;;;;3.13;1.13;;;;;;;4.24;56.00;100347.97;5024217;28;20108;-55
2022/04/18 08:45:16;;;;;;;6.35;1.33;;;;;;;4.17;56.45;100347.84;5024343;28;20068;-54
2022/04/18 08:53:28;;;;;;;4.18;1.40;;;;;;;3.99;56.92;100343.34;5024323;28;20042;-55
2022/04/18 08:56:00;;;;;;;1.10;0.90;;;;;;;4.01;56.68;100357.16;5024046;28;20383;-55
2022/04/18 08:58:33;;;;;;;3.20;1.52;;;;;;;3.91;56.97;100365.66;5024412;28;20052;-55
2022/04/18 09:01:05;;;;;;;6.70;2.80;;;;;;;3.77;57.51;100363.78;5024164;28;20062;-55
2022/04/18 09:03:36;;;;;;;7.20;2.22;;;;;;;3.64;57.88;100367.03;5024166;28;20066;-55
2022/04/18 09:06:10;;;;;;;3.60;1.90;;;;;;;3.36;58.25;100352.88;5024033;28;20115;-55
2022/04/18 09:08:51;;;;;;;5.95;2.33;;;;;;;3.22;58.82;100353.56;5024313;28;20056;-54
2022/04/18 09:11:30;;;;;;;5.50;1.50;;;;;;;3.22;59.41;100373.31;5023672;28;20124;-53
2022/04/18 09:14:08;;;;;;;10.48;1.65;;;;;;;3.17;59.69;100374.97;5024102;28;20344;-56
2022/04/18 09:16:41;;;;;;;6.43;1.50;;;;;;;3.11;59.74;100385.22;5023455;28;20061;-55
2022/04/18 09:19:12;;;;;;;6.38;1.52;;;;;;;2.68;60.02;100338.06;5022235;28;20053;-53
2022/04/18 09:21:57;;;;;;;4.38;1.83;;;;;;;2.77;60.60;100385.53;5022642;28;20056;-57
2022/04/18 09:24:33;;;;;;;17.80;2.92;;;;;;;2.64;60.87;100393.00;5022637;28;20096;-57
2022/04/18 09:27:09;;;;;;;53.50;16.10;;;;;;;1.85;61.10;100285.00;5022855;28;20398;-57
2022/04/18 09:29:41;;;;;;;66.43;20.73;;;;;;;2.46;61.60;100398.72;5022962;28;20296;-57
2022/04/18 09:32:13;;;;;;;17.42;6.47;;;;;;;2.38;61.71;100401.16;5022531;28;20049;-57
2022/04/18 09:34:44;;;;;;;14.02;2.88;;;;;;;2.42;61.66;100397.81;5022380;28;20061;-54
2022/04/18 09:37:17;;;;;;;4.32;1.33;;;;;;;2.42;61.86;100410.69;5022036;28;20087;-55
2022/04/18 09:39:55;;;;;;;4.57;1.30;;;;;;;1.79;61.82;100315.78;5022189;28;20057;-55
2022/04/18 09:42:28;;;;;;;2.90;1.80;;;;;;;2.38;62.19;100422.66;5023098;28;20077;-55
2022/04/18 09:45:01;;;;;;;7.63;1.50;;;;;;;2.41;62.13;100421.84;5022377;28;20076;-55
2022/04/18 09:47:36;;;;;;;5.60;1.50;;;;;;;2.35;62.30;100432.03;5023269;28;20056;-55
2022/04/18 09:50:58;;;;;;;11.00;2.20;;;;;;;1.76;62.46;100346.66;5023371;28;20322;-56
2022/04/18 09:53:16;;;;;;;4.88;1.55;;;;;;;2.16;62.31;100441.09;5021873;28;20054;-54
2022/04/18 09:55:48;;;;;;;5.55;1.42;;;;;;;2.08;62.50;100448.69;5022908;28;20065;-55
2022/04/18 09:58:19;;;;;;;3.78;1.20;;;;;;;1.84;62.61;100427.53;5022869;28;20053;-55
2022/04/18 10:01:12;;;;;;;3.20;1.33;;;;;;;1.94;63.35;100455.25;5023295;28;20046;-53
2022/04/18 10:03:44;;;;;;;5.38;1.65;;;;;;;1.84;63.38;100443.00;5022755;28;20064;-54
2022/04/18 10:06:15;;;;;;;3.08;1.40;;;;;;;1.87;63.51;100453.38;5022420;28;20537;-52
2022/04/18 10:08:45;;;;;;;1.95;1.20;;;;;;;1.87;63.51;100458.50;5023030;28;20073;-52
2022/04/18 10:11:16;;;;;;;8.57;4.38;;;;;;;1.81;63.61;100458.41;5022475;28;20063;-54
2022/04/18 10:13:47;;;;;;;8.02;4.90;;;;;;;1.59;64.39;100463.06;5023236;28;20117;-57
2022/04/18 10:16:21;;;;;;;15.50;8.35;;;;;;;1.39;65.27;100461.72;5022476;28;20050;-55
2022/04/18 10:18:56;;;;;;;14.52;8.38;;;;;;;1.23;65.92;100474.22;5022792;28;20053;-55
2022/04/18 10:21:31;;;;;;;17.25;9.90;;;;;;;1.13;66.59;100474.81;5023058;28;20049;-54
2022/04/18 10:24:26;;;;;;;9.93;4.50;;;;;;;1.01;67.05;100477.09;5023116;28;20052;-55
2022/04/18 10:27:27;;;;;;;5.20;3.22;;;;;;;0.91;67.43;100486.25;5021003;28;20573;-54
2022/04/18 10:30:01;;;;;;;5.93;4.05;;;;;;;0.78;67.88;100494.50;5023177;28;20068;-56
2022/04/18 10:32:37;;;;;;;7.97;4.38;;;;;;;0.74;68.20;100493.53;5027156;28;20052;-57
2022/04/18 10:35:13;;;;;;;5.72;4.05;;;;;;;0.74;67.92;100503.81;5024900;28;20081;-57
2022/04/18 10:37:44;;;;;;;10.18;5.90;;;;;;;0.63;68.20;100506.09;5026461;28;20050;-53
2022/04/18 10:40:19;;;;;;;16.77;9.48;;;;;;;0.61;68.46;100504.31;5026329;28;20089;-56
2022/04/18 10:42:49;;;;;;;7.30;2.78;;;;;;;0.54;68.62;100510.13;5025406;28;20072;-54
2022/04/18 10:45:23;;;;;;;11.23;5.40;;;;;;;0.51;68.88;100512.59;5026282;28;20248;-55
2022/04/18 10:48:10;;;;;;;38.25;16.58;;;;;;;0.46;69.20;100511.59;5025770;28;20065;-57
2022/04/18 10:50:43;;;;;;;68.50;29.38;;;;;;;0.40;69.50;100523.47;5026328;28;20056;-55
2022/04/18 10:53:22;;;;;;;48.78;23.90;;;;;;;0.20;70.10;100514.28;5025570;28;20054;-56
2022/04/18 10:56:12;;;;;;;25.17;11.77;;;;;;;0.10;70.56;100522.53;5025979;28;20129;-56
2022/04/18 10:58:47;;;;;;;10.50;5.50;;;;;;;-0.04;70.52;100525.56;5026123;28;20052;-54
2022/04/18 11:01:20;;;;;;;8.48;5.10;;;;;;;-0.15;70.93;100511.53;5025424;28;20124;-56
2022/04/18 11:04:00;;;;;;;9.85;3.80;;;;;;;-0.36;71.63;100510.84;5025345;28;20384;-57
2022/04/18 11:06:50;;;;;;;2.88;2.17;;;;;;;-0.38;72.17;100527.91;5025843;28;20200;-56
2022/04/18 11:09:25;;;;;;;4.93;2.53;;;;;;;-0.47;72.34;100534.50;5026103;28;20045;-55
2022/04/18 11:12:08;;;;;;;4.28;2.50;;;;;;;-0.56;72.56;100538.47;5026066;28;20053;-57
2022/04/18 11:14:54;;;;;;;3.42;2.30;;;;;;;-0.91;73.22;100495.41;5025560;28;20057;-57
2022/04/18 11:17:30;;;;;;;3.28;1.80;;;;;;;-1.19;73.32;100449.13;5026048;28;20068;-57
2022/04/18 11:20:34;;;;;;;5.65;2.13;;;;;;;-0.74;73.39;100533.59;5025431;28;20335;-55
2022/04/18 11:23:21;;;;;;;9.20;5.00;;;;;;;-0.80;74.13;100535.94;5025814;28;20120;-56
2022/04/18 11:25:57;;;;;;;7.95;1.85;;;;;;;-0.85;74.21;100529.78;5025491;28;20088;-57
2022/04/18 11:28:35;;;;;;;3.17;1.98;;;;;;;-0.89;74.13;100532.25;5025722;28;20081;-57
2022/04/18 11:31:10;;;;;;;3.60;1.92;;;;;;;-0.97;74.23;100517.44;5025742;28;20059;-56
2022/04/18 11:33:43;;;;;;;3.50;1.83;;;;;;;-0.88;74.40;100526.28;5025129;28;20045;-57
2022/04/18 11:36:16;;;;;;;4.38;2.63;;;;;;;-0.83;74.36;100528.13;5024293;28;20042;-57
2022/04/18 11:38:46;;;;;;;8.35;3.65;;;;;;;-0.85;74.42;100532.34;5022730;28;20061;-57
2022/04/18 11:41:18;;;;;;;3.72;2.60;;;;;;;-0.92;74.59;100524.44;5023191;28;20120;-57
2022/04/18 11:43:57;;;;;;;6.63;2.83;;;;;;;-0.84;74.79;100518.72;5024668;28;20255;-57
2022/04/18 11:46:31;;;;;;;11.05;3.53;;;;;;;-0.93;74.63;100504.72;5025150;28;20064;-57
2022/04/18 11:49:02;;;;;;;3.20;2.83;;;;;;;-0.83;74.48;100528.13;5025346;28;20053;-57
2022/04/18 11:51:40;;;;;;;4.20;3.28;;;;;;;-0.85;74.34;100524.66;5024517;28;20236;-57
2022/04/18 11:54:11;;;;;;;8.43;3.80;;;;;;;-0.78;74.61;100537.72;5024997;28;20050;-57
2022/04/18 11:56:42;;;;;;;10.90;3.75;;;;;;;-0.79;74.46;100527.44;5024671;28;20105;-56
2022/04/18 11:59:22;;;;;;;5.43;2.90;;;;;;;-0.81;74.08;100516.25;5025460;28;20100;-57
2022/04/18 12:07:31;;;;;;;7.43;3.78;;;;;;;-0.75;73.93;100517.31;5025079;28;20124;-56
2022/04/18 12:10:19;;;;;;;6.32;2.72;;;;;;;-0.73;74.05;100519.94;5024860;28;20053;-57
2022/04/18 12:12:50;;;;;;;5.55;3.08;;;;;;;-0.83;74.05;100520.44;5024955;28;20394;-57
2022/04/18 12:15:24;;;;;;;5.15;3.10;;;;;;;-0.89;74.10;100498.91;5024317;28;20066;-57
2022/04/18 12:17:56;;;;;;;14.80;2.88;;;;;;;-1.34;73.86;100427.28;5024510;28;20053;-55